sensor_id;sensor_type;location;lat;lon;timestamp;P1;durP1;ratioP1;P2;durP2;ratioP2
55220;SDS011;41089;51.448;6.604;2023-01-25T00:02:58;38.07;;;25.80;;
55220;SDS011;41089;51.448;6.604;2023-01-25T00:08:59;33.30;;;24.80;;
55220;SDS011;41089;51.448;6.604;2023-01-25T00:14:59;28.60;;;22.90;;
55220;SDS011;41089;51.448;6.604;2023-01-25T00:21:10;32.97;;;23.47;;
55220;SDS011;41089;51.448;6.604;2023-01-25T00:27:17;32.17;;;25.77;;
55220;SDS011;41089;51.448;6.604;2023-01-25T00:33:31;32.57;;;24.17;;
55220;SDS011;41089;51.448;6.604;2023-01-25T00:39:39;27.90;;;21.73;;
55220;SDS011;41089;51.448;6.604;2023-01-25T00:45:40;27.08;;;21.65;;
55220;SDS011;41089;51.448;6.604;2023-01-25T00:51:40;26.97;;;22.17;;
55220;SDS011;41089;51.448;6.604;2023-01-25T00:57:41;23.98;;;20.70;;
55220;SDS011;41089;51.448;6.604;2023-01-25T01:03:41;25.60;;;21.58;;
55220;SDS011;41089;51.448;6.604;2023-01-25T01:09:41;27.47;;;21.83;;
55220;SDS011;41089;51.448;6.604;2023-01-25T01:15:42;26.77;;;20.13;;
55220;SDS011;41089;51.448;6.604;2023-01-25T01:21:43;26.60;;;22.33;;
55220;SDS011;41089;51.448;6.604;2023-01-25T01:27:43;28.20;;;22.85;;
55220;SDS011;41089;51.448;6.604;2023-01-25T01:33:44;26.17;;;22.03;;
55220;SDS011;41089;51.448;6.604;2023-01-25T01:39:48;27.63;;;22.98;;
55220;SDS011;41089;51.448;6.604;2023-01-25T01:51:57;27.30;;;22.35;;
55220;SDS011;41089;51.448;6.604;2023-01-25T01:58:00;29.85;;;24.00;;
55220;SDS011;41089;51.448;6.604;2023-01-25T02:04:02;28.38;;;23.50;;
55220;SDS011;41089;51.448;6.604;2023-01-25T02:10:07;33.58;;;25.73;;
55220;SDS011;41089;51.448;6.604;2023-01-25T02:16:15;28.15;;;22.55;;
55220;SDS011;41089;51.448;6.604;2023-01-25T02:22:19;29.35;;;24.33;;
55220;SDS011;41089;51.448;6.604;2023-01-25T02:28:30;30.38;;;22.90;;
55220;SDS011;41089;51.448;6.604;2023-01-25T02:34:37;33.03;;;22.50;;
55220;SDS011;41089;51.448;6.604;2023-01-25T02:40:43;36.10;;;26.17;;
55220;SDS011;41089;51.448;6.604;2023-01-25T02:46:46;37.83;;;25.95;;
55220;SDS011;41089;51.448;6.604;2023-01-25T02:52:48;33.28;;;24.60;;
55220;SDS011;41089;51.448;6.604;2023-01-25T02:58:49;33.03;;;24.48;;
55220;SDS011;41089;51.448;6.604;2023-01-25T03:04:49;38.28;;;26.27;;
55220;SDS011;41089;51.448;6.604;2023-01-25T03:10:50;35.70;;;26.80;;
55220;SDS011;41089;51.448;6.604;2023-01-25T03:16:50;40.55;;;27.15;;
55220;SDS011;41089;51.448;6.604;2023-01-25T03:22:51;33.67;;;26.20;;
55220;SDS011;41089;51.448;6.604;2023-01-25T03:28:51;39.92;;;27.20;;
55220;SDS011;41089;51.448;6.604;2023-01-25T03:34:52;31.35;;;24.73;;
55220;SDS011;41089;51.448;6.604;2023-01-25T03:40:52;35.78;;;26.98;;
55220;SDS011;41089;51.448;6.604;2023-01-25T03:46:53;34.70;;;24.65;;
55220;SDS011;41089;51.448;6.604;2023-01-25T03:52:53;38.13;;;28.83;;
55220;SDS011;41089;51.448;6.604;2023-01-25T03:59:04;35.80;;;27.58;;
55220;SDS011;41089;51.448;6.604;2023-01-25T04:05:05;34.90;;;26.33;;
55220;SDS011;41089;51.448;6.604;2023-01-25T04:11:07;45.20;;;30.05;;
55220;SDS011;41089;51.448;6.604;2023-01-25T04:17:08;41.85;;;31.50;;
55220;SDS011;41089;51.448;6.604;2023-01-25T04:23:10;45.30;;;30.55;;
55220;SDS011;41089;51.448;6.604;2023-01-25T04:29:10;47.95;;;34.47;;
55220;SDS011;41089;51.448;6.604;2023-01-25T04:35:11;48.97;;;32.03;;
55220;SDS011;41089;51.448;6.604;2023-01-25T04:41:12;47.13;;;33.35;;
55220;SDS011;41089;51.448;6.604;2023-01-25T04:47:12;45.30;;;30.83;;
55220;SDS011;41089;51.448;6.604;2023-01-25T04:53:13;55.47;;;34.40;;
55220;SDS011;41089;51.448;6.604;2023-01-25T04:59:13;49.33;;;33.00;;
55220;SDS011;41089;51.448;6.604;2023-01-25T05:05:14;43.38;;;30.80;;
55220;SDS011;41089;51.448;6.604;2023-01-25T05:11:14;48.75;;;34.17;;
55220;SDS011;41089;51.448;6.604;2023-01-25T05:17:18;54.13;;;35.50;;
55220;SDS011;41089;51.448;6.604;2023-01-25T05:23:19;52.92;;;35.15;;
55220;SDS011;41089;51.448;6.604;2023-01-25T05:29:19;45.20;;;33.60;;
55220;SDS011;41089;51.448;6.604;2023-01-25T05:35:20;40.30;;;31.67;;
55220;SDS011;41089;51.448;6.604;2023-01-25T05:41:20;42.53;;;30.90;;
55220;SDS011;41089;51.448;6.604;2023-01-25T05:47:20;43.30;;;30.53;;
55220;SDS011;41089;51.448;6.604;2023-01-25T05:53:25;41.28;;;30.90;;
55220;SDS011;41089;51.448;6.604;2023-01-25T05:59:26;38.13;;;28.83;;
55220;SDS011;41089;51.448;6.604;2023-01-25T06:05:27;38.85;;;28.65;;
55220;SDS011;41089;51.448;6.604;2023-01-25T06:11:27;36.27;;;28.33;;
55220;SDS011;41089;51.448;6.604;2023-01-25T06:17:27;41.65;;;29.92;;
55220;SDS011;41089;51.448;6.604;2023-01-25T06:23:28;36.05;;;26.80;;
55220;SDS011;41089;51.448;6.604;2023-01-25T06:29:28;33.22;;;25.25;;
55220;SDS011;41089;51.448;6.604;2023-01-25T06:35:30;35.08;;;26.73;;
55220;SDS011;41089;51.448;6.604;2023-01-25T06:41:31;34.63;;;27.50;;
55220;SDS011;41089;51.448;6.604;2023-01-25T06:47:31;33.45;;;26.63;;
55220;SDS011;41089;51.448;6.604;2023-01-25T06:53:39;34.47;;;25.53;;
55220;SDS011;41089;51.448;6.604;2023-01-25T06:59:41;38.15;;;27.20;;
55220;SDS011;41089;51.448;6.604;2023-01-25T07:05:41;39.17;;;29.07;;
55220;SDS011;41089;51.448;6.604;2023-01-25T07:11:43;33.35;;;26.60;;
55220;SDS011;41089;51.448;6.604;2023-01-25T07:17:43;36.75;;;28.00;;
55220;SDS011;41089;51.448;6.604;2023-01-25T07:23:44;38.27;;;27.23;;
55220;SDS011;41089;51.448;6.604;2023-01-25T07:29:44;36.85;;;28.63;;
55220;SDS011;41089;51.448;6.604;2023-01-25T07:35:45;40.73;;;30.13;;
55220;SDS011;41089;51.448;6.604;2023-01-25T07:41:45;40.22;;;30.48;;
55220;SDS011;41089;51.448;6.604;2023-01-25T07:47:46;40.67;;;29.77;;
55220;SDS011;41089;51.448;6.604;2023-01-25T07:53:47;42.28;;;31.67;;
55220;SDS011;41089;51.448;6.604;2023-01-25T07:59:48;46.08;;;33.25;;
55220;SDS011;41089;51.448;6.604;2023-01-25T08:05:48;41.83;;;32.42;;
55220;SDS011;41089;51.448;6.604;2023-01-25T08:11:49;42.10;;;31.50;;
55220;SDS011;41089;51.448;6.604;2023-01-25T08:17:49;39.75;;;31.63;;
55220;SDS011;41089;51.448;6.604;2023-01-25T08:23:50;41.58;;;32.15;;
55220;SDS011;41089;51.448;6.604;2023-01-25T08:29:50;40.80;;;29.60;;
55220;SDS011;41089;51.448;6.604;2023-01-25T08:35:53;42.10;;;29.73;;
55220;SDS011;41089;51.448;6.604;2023-01-25T08:41:55;38.85;;;29.20;;
55220;SDS011;41089;51.448;6.604;2023-01-25T08:47:55;42.30;;;29.10;;
55220;SDS011;41089;51.448;6.604;2023-01-25T08:53:56;40.23;;;31.47;;
55220;SDS011;41089;51.448;6.604;2023-01-25T08:59:56;41.60;;;30.87;;
55220;SDS011;41089;51.448;6.604;2023-01-25T09:05:57;42.90;;;31.27;;
55220;SDS011;41089;51.448;6.604;2023-01-25T09:11:57;41.88;;;32.25;;
55220;SDS011;41089;51.448;6.604;2023-01-25T09:17:59;43.30;;;31.13;;
55220;SDS011;41089;51.448;6.604;2023-01-25T09:23:59;40.85;;;30.75;;
55220;SDS011;41089;51.448;6.604;2023-01-25T09:30:00;40.47;;;31.73;;
55220;SDS011;41089;51.448;6.604;2023-01-25T09:36:00;47.65;;;32.50;;
55220;SDS011;41089;51.448;6.604;2023-01-25T09:42:15;44.58;;;31.85;;
55220;SDS011;41089;51.448;6.604;2023-01-25T09:48:42;46.75;;;31.75;;
55220;SDS011;41089;51.448;6.604;2023-01-25T09:54:51;40.55;;;30.67;;
55220;SDS011;41089;51.448;6.604;2023-01-25T10:00:54;37.88;;;31.02;;
55220;SDS011;41089;51.448;6.604;2023-01-25T10:07:26;44.08;;;33.05;;
55220;SDS011;41089;51.448;6.604;2023-01-25T10:13:28;43.55;;;32.38;;
55220;SDS011;41089;51.448;6.604;2023-01-25T10:19:37;45.10;;;33.45;;
55220;SDS011;41089;51.448;6.604;2023-01-25T10:38:38;46.97;;;35.05;;
55220;SDS011;41089;51.448;6.604;2023-01-25T10:44:41;47.92;;;33.70;;
55220;SDS011;41089;51.448;6.604;2023-01-25T10:50:43;53.77;;;40.03;;
55220;SDS011;41089;51.448;6.604;2023-01-25T10:56:45;44.60;;;33.47;;
55220;SDS011;41089;51.448;6.604;2023-01-25T11:02:46;44.67;;;33.03;;
55220;SDS011;41089;51.448;6.604;2023-01-25T11:08:47;44.65;;;33.22;;
55220;SDS011;41089;51.448;6.604;2023-01-25T11:14:49;41.13;;;31.85;;
55220;SDS011;41089;51.448;6.604;2023-01-25T11:33:19;44.55;;;32.80;;
55220;SDS011;41089;51.448;6.604;2023-01-25T11:39:25;46.03;;;34.10;;
55220;SDS011;41089;51.448;6.604;2023-01-25T12:04:59;49.88;;;36.28;;
55220;SDS011;41089;51.448;6.604;2023-01-25T12:30:04;50.55;;;37.15;;
55220;SDS011;41089;51.448;6.604;2023-01-25T12:36:22;46.72;;;35.30;;
55220;SDS011;41089;51.448;6.604;2023-01-25T12:42:31;46.17;;;34.67;;
55220;SDS011;41089;51.448;6.604;2023-01-25T12:48:40;46.67;;;34.88;;
55220;SDS011;41089;51.448;6.604;2023-01-25T12:54:45;48.53;;;36.40;;
55220;SDS011;41089;51.448;6.604;2023-01-25T13:01:06;54.80;;;38.72;;
55220;SDS011;41089;51.448;6.604;2023-01-25T13:07:14;52.15;;;36.65;;
55220;SDS011;41089;51.448;6.604;2023-01-25T13:25:27;59.00;;;41.92;;
55220;SDS011;41089;51.448;6.604;2023-01-25T13:37:37;67.93;;;43.67;;
55220;SDS011;41089;51.448;6.604;2023-01-25T13:43:38;54.65;;;36.78;;
55220;SDS011;41089;51.448;6.604;2023-01-25T13:49:41;54.70;;;37.10;;
55220;SDS011;41089;51.448;6.604;2023-01-25T13:55:44;56.80;;;39.20;;
55220;SDS011;41089;51.448;6.604;2023-01-25T14:01:46;56.65;;;39.22;;
55220;SDS011;41089;51.448;6.604;2023-01-25T14:07:46;64.18;;;42.83;;
55220;SDS011;41089;51.448;6.604;2023-01-25T14:13:58;59.60;;;40.30;;
55220;SDS011;41089;51.448;6.604;2023-01-25T14:20:00;62.85;;;42.58;;
55220;SDS011;41089;51.448;6.604;2023-01-25T14:26:01;57.70;;;39.05;;
55220;SDS011;41089;51.448;6.604;2023-01-25T14:32:01;56.57;;;37.17;;
55220;SDS011;41089;51.448;6.604;2023-01-25T14:38:08;52.63;;;35.83;;
55220;SDS011;41089;51.448;6.604;2023-01-25T14:44:18;59.08;;;39.92;;
55220;SDS011;41089;51.448;6.604;2023-01-25T14:56:39;51.80;;;35.33;;
55220;SDS011;41089;51.448;6.604;2023-01-25T15:02:45;55.45;;;35.72;;
55220;SDS011;41089;51.448;6.604;2023-01-25T15:08:52;50.45;;;35.90;;
55220;SDS011;41089;51.448;6.604;2023-01-25T15:14:54;51.42;;;36.58;;
55220;SDS011;41089;51.448;6.604;2023-01-25T15:20:55;52.15;;;34.92;;
55220;SDS011;41089;51.448;6.604;2023-01-25T15:26:56;53.67;;;35.30;;
55220;SDS011;41089;51.448;6.604;2023-01-25T15:32:56;58.03;;;37.42;;
55220;SDS011;41089;51.448;6.604;2023-01-25T15:38:58;56.22;;;37.10;;
55220;SDS011;41089;51.448;6.604;2023-01-25T15:44:59;52.13;;;35.30;;
55220;SDS011;41089;51.448;6.604;2023-01-25T15:51:01;55.40;;;34.08;;
55220;SDS011;41089;51.448;6.604;2023-01-25T15:57:02;52.53;;;35.20;;
55220;SDS011;41089;51.448;6.604;2023-01-25T16:03:02;54.30;;;35.20;;
55220;SDS011;41089;51.448;6.604;2023-01-25T16:15:28;57.42;;;37.33;;
55220;SDS011;41089;51.448;6.604;2023-01-25T16:21:28;56.65;;;36.88;;
55220;SDS011;41089;51.448;6.604;2023-01-25T16:27:29;56.50;;;37.43;;
55220;SDS011;41089;51.448;6.604;2023-01-25T16:33:34;61.78;;;39.92;;
55220;SDS011;41089;51.448;6.604;2023-01-25T16:39:35;58.08;;;37.80;;
55220;SDS011;41089;51.448;6.604;2023-01-25T16:45:35;53.85;;;35.97;;
55220;SDS011;41089;51.448;6.604;2023-01-25T16:51:42;57.03;;;37.03;;
55220;SDS011;41089;51.448;6.604;2023-01-25T16:57:47;64.38;;;38.78;;
55220;SDS011;41089;51.448;6.604;2023-01-25T17:03:49;63.03;;;39.63;;
55220;SDS011;41089;51.448;6.604;2023-01-25T17:09:50;71.07;;;44.00;;
55220;SDS011;41089;51.448;6.604;2023-01-25T17:15:50;70.75;;;43.58;;
55220;SDS011;41089;51.448;6.604;2023-01-25T17:21:51;76.15;;;45.63;;
55220;SDS011;41089;51.448;6.604;2023-01-25T17:27:51;69.65;;;41.97;;
55220;SDS011;41089;51.448;6.604;2023-01-25T17:33:52;77.72;;;44.53;;
55220;SDS011;41089;51.448;6.604;2023-01-25T17:39:53;69.60;;;42.70;;
55220;SDS011;41089;51.448;6.604;2023-01-25T17:45:53;75.35;;;46.78;;
55220;SDS011;41089;51.448;6.604;2023-01-25T17:51:53;81.83;;;48.10;;
55220;SDS011;41089;51.448;6.604;2023-01-25T17:57:54;89.75;;;50.63;;
55220;SDS011;41089;51.448;6.604;2023-01-25T18:03:56;95.03;;;53.17;;
55220;SDS011;41089;51.448;6.604;2023-01-25T18:09:57;94.18;;;52.70;;
55220;SDS011;41089;51.448;6.604;2023-01-25T18:15:57;100.70;;;52.63;;
55220;SDS011;41089;51.448;6.604;2023-01-25T18:22:00;93.00;;;51.65;;
55220;SDS011;41089;51.448;6.604;2023-01-25T18:28:00;93.00;;;50.92;;
55220;SDS011;41089;51.448;6.604;2023-01-25T18:34:01;89.10;;;48.63;;
55220;SDS011;41089;51.448;6.604;2023-01-25T18:40:01;95.13;;;49.17;;
55220;SDS011;41089;51.448;6.604;2023-01-25T18:46:02;95.68;;;49.13;;
55220;SDS011;41089;51.448;6.604;2023-01-25T18:52:03;93.15;;;49.70;;
55220;SDS011;41089;51.448;6.604;2023-01-25T18:58:04;92.80;;;47.78;;
55220;SDS011;41089;51.448;6.604;2023-01-25T19:04:04;100.45;;;52.72;;
55220;SDS011;41089;51.448;6.604;2023-01-25T19:10:05;97.53;;;51.27;;
55220;SDS011;41089;51.448;6.604;2023-01-25T19:16:06;105.07;;;54.85;;
55220;SDS011;41089;51.448;6.604;2023-01-25T19:22:10;100.75;;;53.78;;
55220;SDS011;41089;51.448;6.604;2023-01-25T19:28:10;107.60;;;53.73;;
55220;SDS011;41089;51.448;6.604;2023-01-25T19:34:12;97.93;;;52.63;;
55220;SDS011;41089;51.448;6.604;2023-01-25T19:40:12;96.88;;;51.72;;
55220;SDS011;41089;51.448;6.604;2023-01-25T19:46:14;94.77;;;50.93;;
55220;SDS011;41089;51.448;6.604;2023-01-25T19:52:20;98.53;;;52.90;;
55220;SDS011;41089;51.448;6.604;2023-01-25T19:58:24;98.45;;;51.90;;
55220;SDS011;41089;51.448;6.604;2023-01-25T20:04:25;94.35;;;49.53;;
55220;SDS011;41089;51.448;6.604;2023-01-25T20:10:29;100.88;;;51.22;;
55220;SDS011;41089;51.448;6.604;2023-01-25T20:16:29;99.30;;;51.80;;
55220;SDS011;41089;51.448;6.604;2023-01-25T20:22:31;92.47;;;49.42;;
55220;SDS011;41089;51.448;6.604;2023-01-25T20:28:32;95.63;;;51.35;;
55220;SDS011;41089;51.448;6.604;2023-01-25T20:34:33;97.53;;;51.00;;
55220;SDS011;41089;51.448;6.604;2023-01-25T20:40:34;101.40;;;49.92;;
55220;SDS011;41089;51.448;6.604;2023-01-25T20:46:35;98.07;;;52.80;;
55220;SDS011;41089;51.448;6.604;2023-01-25T20:52:36;99.95;;;54.33;;
55220;SDS011;41089;51.448;6.604;2023-01-25T20:58:37;104.65;;;51.58;;
55220;SDS011;41089;51.448;6.604;2023-01-25T21:04:38;100.75;;;53.08;;
55220;SDS011;41089;51.448;6.604;2023-01-25T21:10:38;95.28;;;48.85;;
55220;SDS011;41089;51.448;6.604;2023-01-25T21:16:38;97.77;;;49.47;;
55220;SDS011;41089;51.448;6.604;2023-01-25T21:22:39;97.78;;;49.38;;
55220;SDS011;41089;51.448;6.604;2023-01-25T21:28:40;94.35;;;49.85;;
55220;SDS011;41089;51.448;6.604;2023-01-25T21:34:42;94.07;;;46.88;;
55220;SDS011;41089;51.448;6.604;2023-01-25T21:40:42;97.28;;;50.47;;
55220;SDS011;41089;51.448;6.604;2023-01-25T21:46:43;94.37;;;47.70;;
55220;SDS011;41089;51.448;6.604;2023-01-25T21:52:44;101.57;;;51.00;;
55220;SDS011;41089;51.448;6.604;2023-01-25T21:58:46;88.33;;;46.47;;
55220;SDS011;41089;51.448;6.604;2023-01-25T22:04:47;95.80;;;47.83;;
55220;SDS011;41089;51.448;6.604;2023-01-25T22:10:47;83.43;;;44.00;;
55220;SDS011;41089;51.448;6.604;2023-01-25T22:16:51;91.30;;;45.97;;
55220;SDS011;41089;51.448;6.604;2023-01-25T22:22:53;101.47;;;48.28;;
55220;SDS011;41089;51.448;6.604;2023-01-25T22:28:54;85.50;;;44.92;;
55220;SDS011;41089;51.448;6.604;2023-01-25T22:34:57;84.63;;;45.22;;
55220;SDS011;41089;51.448;6.604;2023-01-25T22:41:31;90.55;;;46.45;;
55220;SDS011;41089;51.448;6.604;2023-01-25T22:47:25;90.25;;;45.20;;
55220;SDS011;41089;51.448;6.604;2023-01-25T22:53:25;90.47;;;44.63;;
55220;SDS011;41089;51.448;6.604;2023-01-25T22:59:25;91.37;;;44.30;;
55220;SDS011;41089;51.448;6.604;2023-01-25T23:05:26;94.20;;;45.50;;
55220;SDS011;41089;51.448;6.604;2023-01-25T23:11:27;90.10;;;44.30;;
55220;SDS011;41089;51.448;6.604;2023-01-25T23:17:31;89.25;;;44.55;;
55220;SDS011;41089;51.448;6.604;2023-01-25T23:23:51;89.55;;;44.63;;
55220;SDS011;41089;51.448;6.604;2023-01-25T23:29:52;92.75;;;46.92;;
55220;SDS011;41089;51.448;6.604;2023-01-25T23:35:53;96.78;;;45.65;;
55220;SDS011;41089;51.448;6.604;2023-01-25T23:41:53;101.37;;;47.47;;
55220;SDS011;41089;51.448;6.604;2023-01-25T23:47:53;99.00;;;48.22;;
55220;SDS011;41089;51.448;6.604;2023-01-25T23:53:54;97.77;;;46.30;;
55220;SDS011;41089;51.448;6.604;2023-01-25T23:59:56;91.35;;;46.08;;
